Погода Жуатубана 2 недели

Минас-Жерайс, Бразилия

14 - 27 июля
  • 14июля
    Сегодня
    +12°
    +26°
    Небольшая облачность
    ВремяПогодаТемператураВлажностьДавлениеВетер, м/сВероятность осадков
    00:00Небольшая облачность+16°C78 %702 мм1.9 м/с5 %
    03:00Облачно с прояснениями+14°C87 %702 мм2.2 м/с5 %
    06:00Небольшая облачность+13°C91 %701 мм2.4 м/с5 %
    09:00Небольшая облачность+18°C68 %703 мм3.1 м/с3 %
    12:00Ясно и безоблачно+24°C44 %703 мм2.5 м/с3 %
    15:00Небольшая облачность+25°C36 %701 мм1.6 м/с5 %
    18:00Ясно и безоблачно+22°C47 %701 мм2.1 м/с5 %
    21:00Ясно и безоблачно+20°C51 %702 мм2.8 м/с5 %
  • 15июля
    Понедельник
    +12°
    +27°
    Ясно и безоблачно
    ВремяПогодаТемператураВлажностьДавлениеВетер, м/сВероятность осадков
    00:00Ясно и безоблачно+17°C61 %702 мм2.3 м/с5 %
    03:00Небольшая облачность+15°C71 %700 мм1.6 м/с5 %
    06:00Ясно и безоблачно+13°C81 %700 мм1.8 м/с5 %
    09:00Ясно и безоблачно+19°C50 %703 мм2.7 м/с5 %
    12:00Ясно и безоблачно+24°C35 %703 мм1.5 м/с5 %
    15:00Ясно и безоблачно+26°C33 %702 мм1.0 м/с5 %
    18:00Ясно и безоблачно+22°C47 %702 мм2.0 м/с5 %
    21:00Ясно и безоблачно+18°C58 %703 мм2.8 м/с5 %
  • 16июля
    Вторник
    +12°
    +26°
    Небольшая облачность
    ВремяПогодаТемператураВлажностьДавлениеВетер, м/сВероятность осадков
    00:00Небольшая облачность+17°C65 %703 мм2.9 м/с5 %
    03:00Облачно с прояснениями+15°C74 %702 мм1.7 м/с5 %
    06:00Облачно с прояснениями+13°C86 %701 мм1.7 м/с5 %
    09:00Облачно с прояснениями+19°C54 %704 мм3.1 м/с5 %
    12:00Облачно с прояснениями+24°C39 %704 мм3.6 м/с5 %
    15:00Небольшая облачность+26°C34 %702 мм3.0 м/с5 %
    18:00Ясно и безоблачно+22°C43 %702 мм2.9 м/с5 %
    21:00Ясно и безоблачно+20°C57 %704 мм2.4 м/с5 %
  • 17июля
    Среда
    +13°
    +27°
    Практически безоблачно
    ВремяПогодаТемператураВлажностьДавлениеВетер, м/сВероятность осадков
    00:00Ясно и безоблачно+17°C69 %703 мм2.3 м/с5 %
    03:00Ясно и безоблачно+15°C83 %702 мм1.7 м/с5 %
    06:00Ясно и безоблачно+13°C90 %702 мм1.8 м/с5 %
    09:00Ясно и безоблачно+19°C60 %704 мм3.0 м/с5 %
    12:00Ясно и безоблачно+25°C36 %704 мм1.4 м/с5 %
    15:00Практически безоблачно+27°C31 %702 мм0.5 м/с5 %
    18:00Ясно и безоблачно+23°C42 %701 мм1.7 м/с5 %
    21:00Ясно и безоблачно+20°C56 %702 мм2.9 м/с5 %
  • 18июля
    Четверг
    +14°
    +28°
    Ясно и безоблачно
    ВремяПогодаТемператураВлажностьДавлениеВетер, м/сВероятность осадков
    00:00Ясно и безоблачно+18°C65 %701 мм2.2 м/с5 %
    03:00Ясно и безоблачно+16°C77 %700 мм1.9 м/с5 %
    06:00Ясно и безоблачно+14°C86 %700 мм1.6 м/с5 %
    09:00Ясно и безоблачно+19°C52 %703 мм1.1 м/с5 %
    12:00Ясно и безоблачно+26°C32 %703 мм0.3 м/с5 %
    15:00Ясно и безоблачно+28°C28 %701 мм0.8 м/с5 %
    18:00Ясно и безоблачно+23°C39 %701 мм2.0 м/с5 %
    21:00Ясно и безоблачно+20°C52 %701 мм1.7 м/с5 %
Мы используем cookies
Соглашаюсь